Time;durP1;ratioP1;P1;durP2;ratioP2;P2;SDS_P1;SDS_P2;PMS_P1;PMS_P2;Temp;Humidity;BMP_temperature;BMP_pressure;BME280_temperature;BME280_humidity;BME280_pressure;Samples;Min_cycle;Max_cycle;Signal;HPM_P1;HPM_P2
2023/02/27 00:00:41;;;;;;;9.20;6.28;;;;;;;-1.61;100.00;102792.28;10220550;28;20124;-73
2023/02/27 00:05:40;;;;;;;13.00;6.40;;;;;;;-1.68;100.00;102788.69;10219358;28;20065;-72
2023/02/27 00:10:36;;;;;;;8.80;5.75;;;;;;;-1.72;100.00;102787.38;10223443;28;20042;-72
2023/02/27 00:15:33;;;;;;;12.38;6.25;;;;;;;-1.79;100.00;102791.84;10228324;28;20470;-73
2023/02/27 00:20:31;;;;;;;7.38;5.95;;;;;;;-1.85;100.00;102792.59;10234498;28;20041;-72
2023/02/27 00:25:27;;;;;;;11.30;6.40;;;;;;;-1.88;100.00;102798.28;10226582;28;20053;-73
2023/02/27 00:30:25;;;;;;;8.77;6.93;;;;;;;-1.89;100.00;102802.00;10223754;28;20125;-73
2023/02/27 00:35:21;;;;;;;13.80;7.05;;;;;;;-1.95;100.00;102804.41;10221988;28;20069;-73
2023/02/27 00:40:18;;;;;;;11.00;6.70;;;;;;;-2.05;100.00;102797.63;10234611;28;20464;-73
2023/02/27 00:45:15;;;;;;;9.90;6.60;;;;;;;-2.06;100.00;102802.19;10221662;28;20084;-73
2023/02/27 00:50:13;;;;;;;8.20;5.38;;;;;;;-2.03;100.00;102807.16;10220934;28;20061;-73
2023/02/27 00:55:10;;;;;;;16.52;6.90;;;;;;;-2.09;100.00;102801.69;10222601;28;20041;-73
2023/02/27 01:00:08;;;;;;;8.50;6.22;;;;;;;-2.12;100.00;102808.25;10226959;28;20061;-73
2023/02/27 01:05:05;;;;;;;9.55;6.25;;;;;;;-2.18;100.00;102803.59;10217608;28;20169;-73
2023/02/27 01:10:03;;;;;;;8.15;6.20;;;;;;;-2.20;100.00;102805.66;10226865;28;20617;-70
2023/02/27 01:14:59;;;;;;;9.32;6.07;;;;;;;-2.20;100.00;102794.94;10219386;28;20059;-74
2023/02/27 01:19:55;;;;;;;8.88;6.63;;;;;;;-2.19;100.00;102792.06;10215167;28;20436;-73
2023/02/27 01:24:52;;;;;;;11.30;6.38;;;;;;;-2.22;100.00;102796.97;10227318;28;20558;-73
2023/02/27 01:29:48;;;;;;;12.77;6.57;;;;;;;-2.28;100.00;102797.69;10219213;28;20056;-73
2023/02/27 01:34:45;;;;;;;8.60;6.43;;;;;;;-2.36;100.00;102787.88;10220368;28;20072;-73
2023/02/27 01:39:41;;;;;;;8.10;6.68;;;;;;;-2.38;100.00;102788.06;10229264;28;20042;-73
2023/02/27 01:45:09;;;;;;;9.05;6.07;;;;;;;-2.39;100.00;102783.72;10220883;28;20068;-73
2023/02/27 01:50:07;;;;;;;8.13;6.63;;;;;;;-2.37;100.00;102794.22;10228458;28;20571;-72
2023/02/27 01:55:07;;;;;;;8.52;6.15;;;;;;;-2.33;100.00;102791.00;10222564;28;20697;-72
2023/02/27 02:00:05;;;;;;;11.85;6.45;;;;;;;-2.34;100.00;102784.00;10227019;28;20072;-72
2023/02/27 02:10:15;;;;;;;16.52;7.00;;;;;;;-2.51;100.00;102801.22;10320864;22;20080;-71
2023/02/27 02:15:11;;;;;;;10.00;6.10;;;;;;;-2.45;100.00;102802.34;10203413;28;20046;-71
2023/02/27 02:20:25;;;;;;;8.80;6.35;;;;;;;-2.48;100.00;102798.19;10215565;28;20057;-72
2023/02/27 02:25:46;;;;;;;8.93;6.47;;;;;;;-2.56;100.00;102806.28;10204160;28;20049;-72
2023/02/27 02:31:18;;;;;;;7.68;6.50;;;;;;;-2.59;100.00;102801.28;10195105;28;20462;-72
2023/02/27 02:36:57;;;;;;;13.07;6.65;;;;;;;-2.55;100.00;102807.97;10219604;28;20045;-72
2023/02/27 02:42:23;;;;;;;9.68;5.90;;;;;;;-2.55;100.00;102807.97;10212312;28;20037;-72
2023/02/27 02:47:43;;;;;;;9.27;5.88;;;;;;;-2.53;100.00;102811.25;10202638;28;20124;-72
2023/02/27 02:52:53;;;;;;;8.95;5.90;;;;;;;-2.51;100.00;102809.25;10209333;28;20124;-72
2023/02/27 02:58:05;;;;;;;7.22;5.88;;;;;;;-2.49;100.00;102812.59;10203372;28;20046;-73
2023/02/27 03:03:18;;;;;;;10.40;6.03;;;;;;;-2.39;100.00;102807.84;10217213;28;21356;-72
2023/02/27 03:08:19;;;;;;;8.73;6.07;;;;;;;-2.41;100.00;102804.50;10208937;28;20052;-72
2023/02/27 03:13:40;;;;;;;9.90;6.45;;;;;;;-2.44;100.00;102815.53;10219254;28;20037;-73
2023/02/27 03:18:44;;;;;;;9.57;5.97;;;;;;;-2.41;100.00;102807.19;10228642;28;20426;-72
2023/02/27 03:23:46;;;;;;;11.80;6.78;;;;;;;-2.47;100.00;102805.19;10219996;28;20054;-72
2023/02/27 03:28:52;;;;;;;9.10;6.82;;;;;;;-2.36;100.00;102812.81;10221352;28;20045;-72
2023/02/27 03:33:54;;;;;;;10.32;6.88;;;;;;;-2.38;100.00;102820.19;10235486;28;20496;-73
2023/02/27 03:39:01;;;;;;;7.43;6.30;;;;;;;-2.44;100.00;102820.91;10214198;28;20133;-72
2023/02/27 03:44:08;;;;;;;8.55;6.53;;;;;;;-2.41;100.00;102820.56;10220336;28;20517;-72
2023/02/27 03:49:05;;;;;;;9.02;6.70;;;;;;;-2.49;100.00;102811.75;10226561;28;20107;-72
2023/02/27 03:54:12;;;;;;;7.78;6.72;;;;;;;-2.42;100.00;102823.41;10215402;28;20498;-72
2023/02/27 03:59:09;;;;;;;7.72;6.93;;;;;;;-2.44;100.00;102825.44;10217484;28;20112;-72
2023/02/27 04:04:14;;;;;;;8.18;7.13;;;;;;;-2.44;100.00;102842.34;10229603;28;20058;-72
2023/02/27 04:09:26;;;;;;;11.70;6.95;;;;;;;-2.48;100.00;102846.41;10225460;28;20124;-72
2023/02/27 04:14:46;;;;;;;12.55;7.05;;;;;;;-2.45;100.00;102846.03;10217616;28;20400;-73
2023/02/27 04:20:30;;;;;;;12.60;6.85;;;;;;;-2.52;100.00;102855.81;10216581;28;20069;-72
2023/02/27 04:25:51;;;;;;;13.38;7.30;;;;;;;-2.60;100.00;102863.88;10226948;28;20069;-72
2023/02/27 04:31:09;;;;;;;19.08;8.52;;;;;;;-2.60;100.00;102870.09;10219848;28;20049;-72
2023/02/27 04:36:25;;;;;;;12.02;7.25;;;;;;;-2.66;100.00;102878.00;10214557;28;20076;-73
2023/02/27 04:41:27;;;;;;;9.35;7.80;;;;;;;-2.72;100.00;102876.84;10212352;28;20392;-72
2023/02/27 04:46:26;;;;;;;;;;;;;;;-2.73;100.00;102887.75;10212738;28;20052;-72
2023/02/27 04:51:46;;;;;;;7.80;7.00;;;;;;;-2.70;100.00;102876.69;10217487;28;20445;-73
2023/02/27 04:56:51;;;;;;;9.43;7.80;;;;;;;-2.71;100.00;102878.53;10209663;28;20141;-72
2023/02/27 05:02:01;;;;;;;8.95;7.88;;;;;;;-2.66;100.00;102883.34;10214164;28;20570;-72
2023/02/27 05:07:00;;;;;;;10.55;7.65;;;;;;;-2.68;100.00;102891.56;10217813;28;20037;-72
2023/02/27 05:12:12;;;;;;;11.40;8.45;;;;;;;-2.69;100.00;102892.59;10215686;28;20041;-73
2023/02/27 05:17:20;;;;;;;11.20;7.90;;;;;;;-2.67;100.00;102900.41;10214848;28;20549;-73
2023/02/27 05:22:31;;;;;;;12.50;7.50;;;;;;;-2.68;100.00;102909.47;10221237;28;20564;-73
2023/02/27 05:27:55;;;;;;;10.18;7.55;;;;;;;-2.68;100.00;102915.66;10215653;28;20419;-73
2023/02/27 05:33:05;;;;;;;13.88;9.05;;;;;;;-2.74;100.00;102905.63;10204966;28;20129;-73
2023/02/27 05:38:24;;;;;;;11.52;9.18;;;;;;;-2.77;100.00;102906.81;10212973;28;20065;-73
2023/02/27 05:43:26;;;;;;;18.35;10.55;;;;;;;-2.73;100.00;102906.50;10208963;28;20049;-73
2023/02/27 05:48:29;;;;;;;;;;;;;;;-2.74;100.00;102911.00;10211695;28;20263;-73
2023/02/27 05:53:32;;;;;;;12.00;10.00;;;;;;;-2.72;100.00;102913.50;10209806;28;20008;-73
2023/02/27 05:58:40;;;;;;;11.02;9.32;;;;;;;-2.79;100.00;102908.84;10220103;28;20042;-73
2023/02/27 06:03:38;;;;;;;20.05;11.85;;;;;;;-2.75;100.00;102910.16;10223696;28;20041;-73
2023/02/27 06:08:35;;;;;;;18.25;10.48;;;;;;;-2.70;100.00;102911.50;10207008;28;20112;-73
2023/02/27 06:13:31;;;;;;;12.57;9.98;;;;;;;-2.69;100.00;102926.53;10211409;28;20037;-73
2023/02/27 06:18:28;;;;;;;11.15;10.05;;;;;;;-2.69;100.00;102930.06;10211154;28;20070;-74
2023/02/27 06:23:24;;;;;;;18.13;10.85;;;;;;;-2.73;100.00;102938.63;10203850;28;20134;-74
2023/02/27 06:28:21;;;;;;;13.75;10.43;;;;;;;-2.79;100.00;102949.00;10220552;28;20045;-73
2023/02/27 06:33:17;;;;;;;13.18;10.38;;;;;;;-2.70;100.00;102957.03;10211064;28;20160;-73
2023/02/27 06:38:14;;;;;;;16.98;11.68;;;;;;;-2.68;100.00;102963.88;10221868;28;20395;-74
2023/02/27 06:43:10;;;;;;;20.15;11.27;;;;;;;-2.66;100.00;102969.06;10213748;28;20144;-73
2023/02/27 06:48:07;;;;;;;12.88;10.95;;;;;;;-2.77;100.00;102968.41;10213862;28;20450;-73
2023/02/27 06:53:04;;;;;;;12.63;11.32;;;;;;;-2.69;100.00;102977.41;10208448;28;20049;-73
2023/02/27 06:58:00;;;;;;;13.40;11.32;;;;;;;-2.65;100.00;102973.38;10208162;28;20049;-73
2023/02/27 07:02:57;;;;;;;18.30;12.60;;;;;;;-2.65;100.00;102984.09;10212769;28;20133;-73
2023/02/27 07:07:53;;;;;;;17.95;11.45;;;;;;;-2.61;100.00;102986.25;10210461;28;20145;-73
2023/02/27 07:12:49;;;;;;;18.88;11.98;;;;;;;-2.55;100.00;102992.78;10215438;28;20045;-73
2023/02/27 07:17:46;;;;;;;14.55;12.13;;;;;;;-2.55;100.00;102993.63;10213821;28;20123;-73
2023/02/27 07:22:42;;;;;;;17.95;11.68;;;;;;;-2.43;100.00;103001.25;10214228;28;20069;-73
2023/02/27 07:27:39;;;;;;;16.42;12.85;;;;;;;-2.29;100.00;103002.38;10211443;28;20056;-73
2023/02/27 07:32:35;;;;;;;13.63;12.20;;;;;;;-2.18;100.00;102997.44;10217344;28;20042;-73
2023/02/27 07:37:32;;;;;;;14.50;12.40;;;;;;;-2.08;100.00;102993.69;10199610;28;20500;-73
2023/02/27 07:42:28;;;;;;;20.38;13.75;;;;;;;-1.93;100.00;102995.44;10208291;28;20078;-73
2023/02/27 07:47:25;;;;;;;17.00;12.77;;;;;;;-1.79;100.00;103006.38;10207936;28;20465;-73
2023/02/27 07:52:23;;;;;;;20.45;13.48;;;;;;;-1.64;100.00;103001.91;10207581;28;20046;-73
2023/02/27 07:57:19;;;;;;;16.92;13.23;;;;;;;-1.51;100.00;103003.97;10208148;28;20046;-73
2023/02/27 08:02:15;;;;;;;16.90;12.68;;;;;;;-1.37;100.00;103010.41;10202630;28;20070;-74
2023/02/27 08:07:12;;;;;;;21.13;13.45;;;;;;;-1.23;100.00;103008.75;10209258;28;20053;-74
2023/02/27 08:12:08;;;;;;;20.15;13.70;;;;;;;-1.04;100.00;103010.06;10217279;28;20073;-74
2023/02/27 08:17:05;;;;;;;20.58;13.75;;;;;;;-0.91;100.00;102999.53;10213011;28;20540;-73
2023/02/27 08:22:02;;;;;;;18.50;12.88;;;;;;;-0.77;100.00;103011.28;10217267;28;20073;-73
2023/02/27 08:26:58;;;;;;;17.58;12.75;;;;;;;-0.68;100.00;103005.63;10222982;28;20046;-73
2023/02/27 08:31:55;;;;;;;15.95;12.15;;;;;;;-0.49;100.00;103015.00;10215659;28;20060;-73
2023/02/27 08:36:52;;;;;;;17.85;12.55;;;;;;;-0.31;100.00;103021.81;10224689;28;20045;-73
2023/02/27 08:41:51;;;;;;;19.20;12.60;;;;;;;-0.12;100.00;103015.81;10212511;28;20502;-73
2023/02/27 08:46:47;;;;;;;15.63;11.80;;;;;;;0.00;100.00;103029.63;10209292;28;20167;-72
2023/02/27 08:51:44;;;;;;;17.05;11.85;;;;;;;0.13;100.00;103035.13;10221952;28;20038;-72
2023/02/27 08:56:40;;;;;;;17.58;12.27;;;;;;;0.41;100.00;103031.69;10222844;28;20081;-72
2023/02/27 09:01:37;;;;;;;14.50;11.18;;;;;;;0.65;100.00;103037.66;10225312;28;20499;-73
2023/02/27 09:06:34;;;;;;;12.52;9.50;;;;;;;0.84;100.00;103037.00;10222200;28;20124;-73
2023/02/27 09:11:31;;;;;;;13.65;9.77;;;;;;;1.09;100.00;103023.94;10214030;28;20088;-73
2023/02/27 09:16:28;;;;;;;9.63;7.13;;;;;;;1.35;100.00;103012.47;10227010;28;20563;-72
2023/02/27 09:21:25;;;;;;;9.60;6.68;;;;;;;1.43;100.00;103014.16;10213119;28;20054;-71
2023/02/27 09:26:21;;;;;;;10.77;7.20;;;;;;;1.60;100.00;103007.41;10217986;28;20049;-73
2023/02/27 09:31:36;;;;;;;7.72;5.88;;;;;;;1.80;100.00;103010.16;10214789;28;20042;-72
2023/02/27 09:36:33;;;;;;;8.15;6.05;;;;;;;2.19;100.00;103011.28;10208825;28;20045;-72
2023/02/27 09:41:52;;;;;;;11.88;5.93;;;;;;;2.49;100.00;103002.81;10214478;28;20133;-73
2023/02/27 09:46:48;;;;;;;7.65;4.85;;;;;;;2.76;100.00;102991.97;10211826;28;20525;-71
2023/02/27 09:51:45;;;;;;;8.45;5.35;;;;;;;3.46;100.00;102993.06;10210932;28;20065;-72
2023/02/27 09:56:57;;;;;;;8.18;5.07;;;;;;;3.90;100.00;102972.44;10216204;28;20128;-71
2023/02/27 10:02:11;;;;;;;7.85;5.30;;;;;;;4.28;100.00;102968.84;10204303;28;20076;-71
2023/02/27 10:07:22;;;;;;;5.60;4.45;;;;;;;4.45;100.00;102966.41;10210061;28;20046;-71
2023/02/27 10:12:31;;;;;;;9.48;4.70;;;;;;;4.85;100.00;102964.16;10220396;28;20041;-71
2023/02/27 10:17:31;;;;;;;7.68;4.93;;;;;;;5.19;100.00;102963.78;10212447;28;20065;-71
2023/02/27 10:22:32;;;;;;;6.38;4.90;;;;;;;5.46;100.00;102969.72;10210890;28;20120;-71
2023/02/27 10:27:30;;;;;;;9.52;5.05;;;;;;;6.29;100.00;102968.16;10208343;28;20136;-71
2023/02/27 10:32:31;;;;;;;5.85;4.85;;;;;;;6.51;100.00;102977.38;10215715;28;20050;-71
2023/02/27 10:37:29;;;;;;;7.53;4.93;;;;;;;6.37;100.00;102975.13;10213913;28;20050;-71
2023/02/27 10:42:30;;;;;;;6.82;4.55;;;;;;;6.36;100.00;102987.91;10220985;28;20050;-71
2023/02/27 10:47:27;;;;;;;9.73;5.95;;;;;;;6.21;100.00;102992.94;10212383;28;20068;-71
2023/02/27 10:52:23;;;;;;;5.78;5.20;;;;;;;6.15;100.00;102999.28;10216357;28;20044;-70
2023/02/27 10:57:41;;;;;;;7.05;4.80;;;;;;;6.51;100.00;102999.13;10213363;28;20046;-71
2023/02/27 11:02:40;;;;;;;8.27;5.07;;;;;;;6.39;100.00;103001.00;10216666;28;20053;-71
2023/02/27 11:07:38;;;;;;;6.10;5.07;;;;;;;6.32;100.00;103001.09;10218142;28;20044;-71
2023/02/27 11:12:34;;;;;;;6.07;5.13;;;;;;;6.91;100.00;103003.03;10215905;28;20128;-71
2023/02/27 11:17:33;;;;;;;9.75;6.18;;;;;;;7.54;100.00;103004.13;10220943;28;20049;-71
2023/02/27 11:22:31;;;;;;;5.53;5.00;;;;;;;7.77;100.00;103001.34;10212861;28;20480;-71
2023/02/27 11:27:29;;;;;;;7.90;5.57;;;;;;;6.89;100.00;103011.47;10208098;28;20550;-71
2023/02/27 11:32:35;;;;;;;7.47;5.95;;;;;;;7.10;100.00;103009.19;10204823;28;20141;-71
2023/02/27 11:37:35;;;;;;;8.27;5.43;;;;;;;6.94;100.00;103008.84;10197155;28;20049;-71
2023/02/27 11:42:34;;;;;;;6.78;5.13;;;;;;;7.01;100.00;103007.88;10219244;28;20411;-71
2023/02/27 11:47:34;;;;;;;6.50;5.57;;;;;;;6.68;100.00;103014.75;10212006;28;20085;-71
2023/02/27 11:52:43;;;;;;;6.25;5.22;;;;;;;6.24;100.00;103008.75;10213774;28;20108;-71
2023/02/27 11:57:42;;;;;;;7.25;5.13;;;;;;;6.15;100.00;103011.00;10220560;28;20046;-72
2023/02/27 12:03:11;;;;;;;6.45;5.00;;;;;;;7.09;100.00;103007.53;10206046;28;20072;-71
2023/02/27 12:08:20;;;;;;;8.73;5.65;;;;;;;7.45;100.00;103000.97;10219392;28;20103;-71
2023/02/27 12:13:21;;;;;;;6.50;5.80;;;;;;;7.79;100.00;102996.44;10221656;28;20049;-71
2023/02/27 12:18:34;;;;;;;7.90;5.32;;;;;;;7.94;100.00;102989.66;10217455;28;20052;-71
2023/02/27 12:23:39;;;;;;;5.40;4.90;;;;;;;7.53;100.00;102994.31;10222285;28;20046;-71
2023/02/27 12:28:44;;;;;;;7.38;5.55;;;;;;;9.44;100.00;102989.78;10213805;28;20422;-71
2023/02/27 12:33:50;;;;;;;8.35;4.90;;;;;;;9.87;100.00;102984.53;10213089;28;20074;-71
2023/02/27 12:38:46;;;;;;;8.55;5.88;;;;;;;9.87;100.00;102985.34;10207543;28;20078;-71
2023/02/27 12:44:09;;;;;;;8.15;5.70;;;;;;;9.32;100.00;102972.69;10215247;28;20037;-71
2023/02/27 12:49:20;;;;;;;7.03;6.20;;;;;;;9.21;100.00;102981.84;10219894;28;20780;-71
2023/02/27 12:54:37;;;;;;;8.45;5.93;;;;;;;11.46;93.61;102964.53;10211871;28;20488;-71
2023/02/27 12:59:55;;;;;;;9.30;5.53;;;;;;;11.49;94.44;102964.03;10210311;28;20052;-71
2023/02/27 13:05:46;;;;;;;6.07;5.07;;;;;;;12.80;80.77;102969.03;10219074;28;20038;-71
2023/02/27 13:11:01;;;;;;;5.60;5.10;;;;;;;10.55;76.15;102968.47;10167178;28;20061;-71
2023/02/27 13:16:35;;;;;;;5.97;4.43;;;;;;;13.20;66.13;102961.78;10216596;28;20037;-70
2023/02/27 13:21:50;;;;;;;6.63;4.90;;;;;;;12.21;62.38;102965.00;10212722;28;20525;-71
2023/02/27 13:27:05;;;;;;;5.07;4.57;;;;;;;11.92;69.56;102964.69;10219119;28;20057;-72
2023/02/27 13:32:24;;;;;;;7.47;4.72;;;;;;;11.45;71.21;102960.16;10213500;28;20045;-71
2023/02/27 13:38:01;;;;;;;5.38;4.60;;;;;;;10.99;72.45;102950.94;10218265;28;20067;-71
2023/02/27 13:43:04;;;;;;;5.35;4.80;;;;;;;11.89;74.71;102948.78;10214405;28;20076;-73
2023/02/27 13:48:01;;;;;;;6.00;4.47;;;;;;;11.94;64.12;102946.06;10232171;28;21892;-70
2023/02/27 13:53:08;;;;;;;7.65;5.15;;;;;;;12.63;67.91;102946.59;10222971;28;20123;-70
2023/02/27 13:58:05;;;;;;;7.70;5.13;;;;;;;13.38;60.81;102949.38;10214626;28;20052;-72
2023/02/27 14:03:06;;;;;;;6.35;5.28;;;;;;;14.17;53.64;102945.81;10207056;28;20111;-69
2023/02/27 14:08:05;;;;;;;8.60;5.25;;;;;;;15.55;54.34;102952.59;10209593;28;20074;-69
2023/02/27 14:13:03;;;;;;;6.03;5.38;;;;;;;14.93;52.61;102958.88;10232496;28;20072;-69
2023/02/27 14:18:02;;;;;;;7.00;4.70;;;;;;;13.41;51.39;102969.97;10211378;28;20083;-70
2023/02/27 14:23:17;;;;;;;5.90;4.68;;;;;;;12.86;60.54;102972.63;10208001;28;20038;-69
2023/02/27 14:28:19;;;;;;;6.25;5.60;;;;;;;11.64;69.38;102973.38;10210029;28;20610;-70
2023/02/27 14:33:19;;;;;;;;;;;;;;;10.74;71.36;102972.44;10206630;28;20053;-70
2023/02/27 14:38:37;;;;;;;5.28;4.57;;;;;;;9.50;72.87;102987.94;10207691;28;19929;-71
2023/02/27 14:43:38;;;;;;;4.70;4.18;;;;;;;9.09;78.32;102994.78;10214220;28;20116;-71
2023/02/27 14:48:36;;;;;;;7.93;5.20;;;;;;;8.82;80.90;102995.50;10214476;28;20133;-71
2023/02/27 14:53:33;;;;;;;4.72;4.22;;;;;;;8.76;79.67;102991.03;10212236;28;20418;-71
2023/02/27 14:58:30;;;;;;;4.45;3.88;;;;;;;8.28;86.13;102989.69;10209391;28;20136;-72
2023/02/27 15:03:33;;;;;;;5.75;5.20;;;;;;;7.97;82.95;102989.16;10207199;28;20407;-72
2023/02/27 15:08:35;;;;;;;5.90;4.30;;;;;;;7.97;87.01;102997.34;10212183;28;20128;-72
2023/02/27 15:13:35;;;;;;;8.73;5.05;;;;;;;7.60;90.29;103000.44;10217192;28;20037;-72
2023/02/27 15:18:31;;;;;;;5.00;4.50;;;;;;;7.23;95.05;102997.22;10226185;28;20062;-72
2023/02/27 15:23:28;;;;;;;6.35;4.90;;;;;;;7.45;98.33;103002.84;10223179;28;20045;-72
2023/02/27 15:28:36;;;;;;;7.68;4.70;;;;;;;7.21;99.73;103002.91;10206243;28;20075;-72
2023/02/27 15:33:32;;;;;;;5.72;4.75;;;;;;;7.04;100.00;102996.53;10212293;28;20046;-72
2023/02/27 15:38:34;;;;;;;9.77;4.63;;;;;;;6.89;100.00;103003.31;10213309;28;20463;-72
2023/02/27 15:43:31;;;;;;;6.93;4.13;;;;;;;6.63;100.00;103006.47;10225432;28;20041;-72
2023/02/27 15:48:28;;;;;;;5.25;4.75;;;;;;;6.76;100.00;103010.88;10218014;28;20490;-72
2023/02/27 15:53:27;;;;;;;6.85;4.88;;;;;;;6.84;100.00;103014.03;10211480;28;20880;-71
2023/02/27 15:58:29;;;;;;;6.10;4.85;;;;;;;6.78;100.00;103006.84;10210143;28;20052;-72
2023/02/27 16:03:34;;;;;;;6.90;5.57;;;;;;;6.28;100.00;103001.81;10209488;28;20116;-72
2023/02/27 16:08:30;;;;;;;7.97;5.60;;;;;;;6.07;100.00;103004.00;10215617;28;20414;-72
2023/02/27 16:13:30;;;;;;;8.55;5.65;;;;;;;5.96;100.00;103010.19;10206622;28;20034;-73
2023/02/27 16:18:44;;;;;;;8.43;6.00;;;;;;;5.97;100.00;103009.16;10225190;28;20049;-72
2023/02/27 16:23:41;;;;;;;11.95;6.40;;;;;;;5.96;100.00;103012.91;10226996;28;20077;-72
2023/02/27 16:28:49;;;;;;;8.40;6.68;;;;;;;5.67;100.00;103014.56;10211368;28;20067;-72
2023/02/27 16:33:46;;;;;;;8.45;6.45;;;;;;;5.68;100.00;103011.59;10208309;28;20148;-72
2023/02/27 16:38:43;;;;;;;8.95;6.53;;;;;;;5.36;100.00;103007.41;10215389;28;20042;-72
2023/02/27 16:43:40;;;;;;;7.95;6.68;;;;;;;5.25;100.00;103007.09;10216486;28;20072;-72
2023/02/27 16:48:37;;;;;;;8.65;6.05;;;;;;;5.08;100.00;103006.03;10219132;28;20485;-72
2023/02/27 16:53:33;;;;;;;8.05;6.53;;;;;;;4.94;100.00;103015.34;10214851;28;20125;-72
2023/02/27 16:58:29;;;;;;;10.25;6.82;;;;;;;4.75;100.00;103012.59;10217080;28;20042;-72
2023/02/27 17:03:26;;;;;;;7.35;6.03;;;;;;;4.70;100.00;102998.91;10211872;28;20128;-71
2023/02/27 17:08:23;;;;;;;10.45;6.65;;;;;;;4.69;100.00;103001.81;10211598;28;20052;-72
2023/02/27 17:13:19;;;;;;;6.88;6.28;;;;;;;4.63;100.00;102995.44;10209278;28;20431;-72
2023/02/27 17:18:16;;;;;;;7.38;6.68;;;;;;;4.62;100.00;102991.06;10212662;28;20045;-72
2023/02/27 17:23:12;;;;;;;8.75;6.57;;;;;;;4.64;100.00;102986.22;10224594;28;20045;-72
2023/02/27 17:28:10;;;;;;;10.88;7.20;;;;;;;4.59;100.00;103010.47;10222064;28;20046;-72
2023/02/27 17:33:08;;;;;;;11.18;7.38;;;;;;;4.62;100.00;103012.75;10212898;28;20045;-72
2023/02/27 17:38:04;;;;;;;12.45;7.50;;;;;;;4.61;100.00;103005.66;10205708;28;20080;-72
2023/02/27 17:43:03;;;;;;;10.50;6.72;;;;;;;4.57;100.00;103005.28;10209117;28;20042;-72
2023/02/27 17:47:59;;;;;;;8.65;6.70;;;;;;;4.54;100.00;103004.88;10200127;28;20072;-71
2023/02/27 17:52:55;;;;;;;9.93;6.75;;;;;;;4.55;100.00;103001.13;10213568;28;20496;-72
2023/02/27 17:57:52;;;;;;;7.50;6.22;;;;;;;4.50;100.00;103004.47;10211776;28;20038;-72
2023/02/27 18:02:49;;;;;;;7.00;6.28;;;;;;;4.51;100.00;102994.50;10217157;28;20565;-72
2023/02/27 18:07:46;;;;;;;9.32;6.47;;;;;;;4.49;100.00;103004.72;10216983;28;20060;-72
2023/02/27 18:12:43;;;;;;;7.35;6.22;;;;;;;4.50;100.00;102998.25;10222933;28;20048;-72
2023/02/27 18:17:42;;;;;;;7.35;5.80;;;;;;;4.44;100.00;103013.50;10211305;28;20058;-72
2023/02/27 18:22:38;;;;;;;8.27;6.18;;;;;;;4.25;100.00;103023.44;10214538;28;20415;-72
2023/02/27 18:27:35;;;;;;;7.97;5.95;;;;;;;4.35;100.00;103023.78;10215549;28;20048;-71
2023/02/27 18:32:31;;;;;;;7.88;5.70;;;;;;;4.38;100.00;103034.16;10203312;28;20149;-72
2023/02/27 18:37:28;;;;;;;9.55;6.32;;;;;;;4.26;100.00;103035.94;10201183;28;20048;-72
2023/02/27 18:42:24;;;;;;;11.07;6.32;;;;;;;4.37;100.00;103032.50;10211794;28;20041;-72
2023/02/27 18:47:20;;;;;;;9.25;6.00;;;;;;;4.43;100.00;103030.78;10210036;28;20088;-71
2023/02/27 18:52:17;;;;;;;8.95;5.72;;;;;;;4.39;100.00;103046.69;10208825;28;20045;-71
2023/02/27 18:57:14;;;;;;;8.80;6.18;;;;;;;4.37;100.00;103053.38;10203996;28;20096;-71
2023/02/27 19:02:13;;;;;;;6.28;5.65;;;;;;;4.33;100.00;103047.53;10208160;28;20065;-71
2023/02/27 19:07:10;;;;;;;8.32;6.07;;;;;;;4.40;100.00;103053.75;10207210;28;20133;-72
2023/02/27 19:12:09;;;;;;;7.63;6.20;;;;;;;4.35;100.00;103044.63;10211022;28;20766;-71
2023/02/27 19:17:06;;;;;;;8.38;5.65;;;;;;;4.27;100.00;103048.44;10209276;28;20045;-72
2023/02/27 19:22:02;;;;;;;10.82;5.60;;;;;;;4.33;100.00;103052.13;10210130;28;20054;-71
2023/02/27 19:26:59;;;;;;;7.60;5.85;;;;;;;4.30;100.00;103047.16;10206787;28;20077;-72
2023/02/27 19:31:55;;;;;;;10.82;6.05;;;;;;;4.27;100.00;103053.84;10209400;28;20096;-71
2023/02/27 19:36:51;;;;;;;6.28;5.40;;;;;;;4.24;100.00;103048.03;10217932;28;20069;-72
2023/02/27 19:41:48;;;;;;;9.27;5.93;;;;;;;4.17;100.00;103043.47;10207375;28;20084;-71
2023/02/27 19:46:49;;;;;;;8.50;5.63;;;;;;;4.17;100.00;103043.47;10193937;28;20121;-71
2023/02/27 19:51:46;;;;;;;10.50;5.87;;;;;;;4.10;100.00;103047.28;10212003;28;20521;-72
2023/02/27 19:56:42;;;;;;;8.80;6.88;;;;;;;4.09;100.00;103057.28;10203975;28;20049;-71
2023/02/27 20:01:39;;;;;;;9.55;6.82;;;;;;;4.10;100.00;103058.09;10209315;28;20503;-71
2023/02/27 20:06:40;;;;;;;8.68;6.75;;;;;;;4.16;100.00;103057.25;10215174;28;20116;-72
2023/02/27 20:11:36;;;;;;;8.77;6.47;;;;;;;4.19;100.00;103051.38;10210748;28;20077;-72
2023/02/27 20:16:35;;;;;;;9.43;6.53;;;;;;;4.09;100.00;103051.88;10218205;28;20053;-71
2023/02/27 20:21:33;;;;;;;10.10;6.43;;;;;;;4.06;100.00;103062.28;10221252;28;20092;-71
2023/02/27 20:26:35;;;;;;;10.00;6.57;;;;;;;4.06;100.00;103065.00;10223609;28;20475;-71
2023/02/27 20:31:34;;;;;;;9.13;6.00;;;;;;;4.07;100.00;103078.31;10211842;28;20080;-71
2023/02/27 20:36:34;;;;;;;7.50;6.00;;;;;;;4.00;100.00;103069.41;10209475;28;20101;-71
2023/02/27 20:41:33;;;;;;;9.93;6.40;;;;;;;3.96;100.00;103074.41;10218554;28;20100;-71
2023/02/27 20:46:30;;;;;;;8.75;6.13;;;;;;;3.97;100.00;103070.66;10212697;28;20111;-72
2023/02/27 20:51:35;;;;;;;10.02;5.72;;;;;;;3.92;100.00;103075.91;10219287;28;20053;-71
2023/02/27 20:56:34;;;;;;;11.77;5.60;;;;;;;3.92;100.00;103067.78;10207796;28;20081;-71
2023/02/27 21:01:30;;;;;;;8.77;5.30;;;;;;;3.94;100.00;103076.50;10212923;28;20523;-71
2023/02/27 21:06:29;;;;;;;8.80;5.05;;;;;;;3.82;100.00;103078.22;10222128;28;20038;-71
2023/02/27 21:11:28;;;;;;;8.13;4.80;;;;;;;3.90;100.00;103075.28;10204959;28;20053;-71
2023/02/27 21:16:25;;;;;;;8.07;4.72;;;;;;;3.84;100.00;103070.72;10213246;28;20407;-71
2023/02/27 21:21:24;;;;;;;7.18;5.28;;;;;;;3.79;100.00;103062.44;10212612;28;20107;-71
2023/02/27 21:26:25;;;;;;;6.63;5.55;;;;;;;3.70;100.00;103061.00;10219088;28;20064;-71
2023/02/27 21:31:23;;;;;;;7.25;4.95;;;;;;;3.59;100.00;103079.53;10202959;28;20064;-71
2023/02/27 21:36:28;;;;;;;6.60;5.32;;;;;;;3.48;100.00;103072.13;10213924;28;20415;-70
2023/02/27 21:41:25;;;;;;;7.32;4.93;;;;;;;3.50;100.00;103070.00;10206048;28;20038;-71
2023/02/27 21:46:22;;;;;;;11.15;5.90;;;;;;;3.57;100.00;103068.13;10207129;28;20041;-71
2023/02/27 21:51:19;;;;;;;8.90;5.72;;;;;;;3.52;100.00;103067.91;10209545;28;20057;-71
2023/02/27 21:56:34;;;;;;;8.05;5.40;;;;;;;3.54;100.00;103076.66;10213498;28;20545;-71
2023/02/27 22:01:32;;;;;;;10.95;5.13;;;;;;;3.45;100.00;103077.94;10212275;28;20049;-71
2023/02/27 22:06:30;;;;;;;6.35;5.05;;;;;;;3.49;100.00;103076.47;10215539;28;20496;-71
2023/02/27 22:11:28;;;;;;;8.00;5.50;;;;;;;3.56;100.00;103063.75;10210400;28;20095;-71
2023/02/27 22:16:26;;;;;;;10.65;5.55;;;;;;;3.57;100.00;103059.16;10222756;28;20065;-71
2023/02/27 22:21:24;;;;;;;9.10;5.15;;;;;;;3.53;100.00;103066.88;10206945;28;20048;-72
2023/02/27 22:26:24;;;;;;;6.50;4.70;;;;;;;3.62;100.00;103066.63;10212474;28;20038;-72
2023/02/27 22:31:23;;;;;;;9.85;5.07;;;;;;;3.67;100.00;103069.56;10213576;28;20072;-71
2023/02/27 22:36:24;;;;;;;10.13;5.65;;;;;;;3.66;100.00;103057.06;10219030;28;20052;-71
2023/02/27 22:41:27;;;;;;;9.82;5.20;;;;;;;3.62;100.00;103067.50;10213260;28;20075;-71
2023/02/27 22:46:27;;;;;;;8.35;5.18;;;;;;;3.63;100.00;103073.72;10210824;28;20470;-71
2023/02/27 22:51:26;;;;;;;8.43;4.32;;;;;;;3.58;100.00;103077.91;10226232;28;20041;-71
2023/02/27 22:56:23;;;;;;;10.65;4.82;;;;;;;3.57;100.00;103078.97;10217892;28;20056;-71
2023/02/27 23:01:22;;;;;;;7.32;4.45;;;;;;;3.55;100.00;103081.03;10219262;28;20053;-71